sensor_id;sensor_type;location;lat;lon;timestamp;temperature;humidity
1367;DHT22;16877;48.810;9.282;2022-10-30T00:01:58;26.20;55.20
1367;DHT22;16877;48.810;9.282;2022-10-30T00:04:25;26.20;55.20
1367;DHT22;16877;48.810;9.282;2022-10-30T00:06:52;26.20;55.20
1367;DHT22;16877;48.810;9.282;2022-10-30T00:09:18;26.20;55.20
1367;DHT22;16877;48.810;9.282;2022-10-30T00:11:45;26.20;55.20
1367;DHT22;16877;48.810;9.282;2022-10-30T00:14:13;26.10;55.10
1367;DHT22;16877;48.810;9.282;2022-10-30T00:16:40;26.10;55.00
1367;DHT22;16877;48.810;9.282;2022-10-30T00:19:07;26.10;55.10
1367;DHT22;16877;48.810;9.282;2022-10-30T00:21:33;26.10;55.10
1367;DHT22;16877;48.810;9.282;2022-10-30T00:24:00;26.10;55.00
1367;DHT22;16877;48.810;9.282;2022-10-30T00:26:27;26.00;55.00
1367;DHT22;16877;48.810;9.282;2022-10-30T00:28:54;26.00;55.00
1367;DHT22;16877;48.810;9.282;2022-10-30T00:31:23;26.00;55.00
1367;DHT22;16877;48.810;9.282;2022-10-30T00:33:49;26.10;55.00
1367;DHT22;16877;48.810;9.282;2022-10-30T00:36:16;26.00;55.00
1367;DHT22;16877;48.810;9.282;2022-10-30T00:38:43;26.00;55.00
1367;DHT22;16877;48.810;9.282;2022-10-30T00:41:13;26.00;54.90
1367;DHT22;16877;48.810;9.282;2022-10-30T00:43:40;26.00;54.90
1367;DHT22;16877;48.810;9.282;2022-10-30T00:46:14;25.90;54.80
1367;DHT22;16877;48.810;9.282;2022-10-30T00:48:44;25.90;54.80
1367;DHT22;16877;48.810;9.282;2022-10-30T00:51:13;25.90;54.70
1367;DHT22;16877;48.810;9.282;2022-10-30T00:53:41;25.90;54.70
1367;DHT22;16877;48.810;9.282;2022-10-30T00:56:09;25.90;54.70
1367;DHT22;16877;48.810;9.282;2022-10-30T00:58:39;25.90;54.70
1367;DHT22;16877;48.810;9.282;2022-10-30T01:01:08;25.90;54.70
1367;DHT22;16877;48.810;9.282;2022-10-30T01:03:38;25.90;54.60
1367;DHT22;16877;48.810;9.282;2022-10-30T01:06:09;25.80;54.60
1367;DHT22;16877;48.810;9.282;2022-10-30T01:08:37;25.80;54.60
1367;DHT22;16877;48.810;9.282;2022-10-30T01:11:04;25.80;54.60
1367;DHT22;16877;48.810;9.282;2022-10-30T01:13:33;25.80;54.60
1367;DHT22;16877;48.810;9.282;2022-10-30T01:16:31;25.80;54.60
1367;DHT22;16877;48.810;9.282;2022-10-30T01:19:12;25.80;54.60
1367;DHT22;16877;48.810;9.282;2022-10-30T01:21:50;25.70;54.60
1367;DHT22;16877;48.810;9.282;2022-10-30T01:24:30;25.70;54.60
1367;DHT22;16877;48.810;9.282;2022-10-30T01:27:12;25.70;54.60
1367;DHT22;16877;48.810;9.282;2022-10-30T01:29:47;25.70;54.60
1367;DHT22;16877;48.810;9.282;2022-10-30T01:32:27;25.70;54.60
1367;DHT22;16877;48.810;9.282;2022-10-30T01:35:01;25.70;54.60
1367;DHT22;16877;48.810;9.282;2022-10-30T01:37:35;25.70;54.60
1367;DHT22;16877;48.810;9.282;2022-10-30T01:40:05;25.70;54.60
1367;DHT22;16877;48.810;9.282;2022-10-30T01:42:47;25.70;54.60
1367;DHT22;16877;48.810;9.282;2022-10-30T01:45:20;25.70;54.70
1367;DHT22;16877;48.810;9.282;2022-10-30T01:47:58;25.70;54.70
1367;DHT22;16877;48.810;9.282;2022-10-30T01:50:35;25.70;54.70
1367;DHT22;16877;48.810;9.282;2022-10-30T01:53:11;25.60;54.70
1367;DHT22;16877;48.810;9.282;2022-10-30T01:55:48;25.60;54.70
1367;DHT22;16877;48.810;9.282;2022-10-30T01:58:23;25.60;54.70
1367;DHT22;16877;48.810;9.282;2022-10-30T02:00:55;25.60;54.70
1367;DHT22;16877;48.810;9.282;2022-10-30T02:03:24;25.50;54.80
1367;DHT22;16877;48.810;9.282;2022-10-30T02:05:52;25.50;54.80
1367;DHT22;16877;48.810;9.282;2022-10-30T02:08:21;25.50;54.80
1367;DHT22;16877;48.810;9.282;2022-10-30T02:10:50;25.50;54.80
1367;DHT22;16877;48.810;9.282;2022-10-30T02:13:17;25.50;54.80
1367;DHT22;16877;48.810;9.282;2022-10-30T02:15:45;25.50;54.80
1367;DHT22;16877;48.810;9.282;2022-10-30T02:18:12;25.50;54.80
1367;DHT22;16877;48.810;9.282;2022-10-30T02:20:40;25.50;54.90
1367;DHT22;16877;48.810;9.282;2022-10-30T02:23:07;25.50;55.00
1367;DHT22;16877;48.810;9.282;2022-10-30T02:25:37;25.50;54.90
1367;DHT22;16877;48.810;9.282;2022-10-30T02:28:04;25.40;54.80
1367;DHT22;16877;48.810;9.282;2022-10-30T02:30:31;25.40;54.80
1367;DHT22;16877;48.810;9.282;2022-10-30T02:32:58;25.40;54.80
1367;DHT22;16877;48.810;9.282;2022-10-30T02:35:24;25.40;54.80
1367;DHT22;16877;48.810;9.282;2022-10-30T02:37:52;25.40;54.80
1367;DHT22;16877;48.810;9.282;2022-10-30T02:40:19;25.40;54.80
1367;DHT22;16877;48.810;9.282;2022-10-30T02:42:50;25.40;54.80
1367;DHT22;16877;48.810;9.282;2022-10-30T02:45:17;25.40;54.80
1367;DHT22;16877;48.810;9.282;2022-10-30T02:47:44;25.40;54.80
1367;DHT22;16877;48.810;9.282;2022-10-30T02:50:11;25.30;54.80
1367;DHT22;16877;48.810;9.282;2022-10-30T02:52:37;25.30;54.70
1367;DHT22;16877;48.810;9.282;2022-10-30T02:55:06;25.30;54.70
1367;DHT22;16877;48.810;9.282;2022-10-30T02:57:33;25.30;54.80
1367;DHT22;16877;48.810;9.282;2022-10-30T02:59:59;25.30;54.80
1367;DHT22;16877;48.810;9.282;2022-10-30T03:02:26;25.30;54.80
1367;DHT22;16877;48.810;9.282;2022-10-30T03:04:53;25.30;54.80
1367;DHT22;16877;48.810;9.282;2022-10-30T03:07:20;25.30;54.80
1367;DHT22;16877;48.810;9.282;2022-10-30T03:09:46;25.30;54.80
1367;DHT22;16877;48.810;9.282;2022-10-30T03:12:14;25.30;54.80
1367;DHT22;16877;48.810;9.282;2022-10-30T03:14:41;25.30;54.80
1367;DHT22;16877;48.810;9.282;2022-10-30T03:17:08;25.20;54.80
1367;DHT22;16877;48.810;9.282;2022-10-30T03:19:34;25.20;54.80
1367;DHT22;16877;48.810;9.282;2022-10-30T03:22:01;25.20;54.80
1367;DHT22;16877;48.810;9.282;2022-10-30T03:24:28;25.20;54.80
1367;DHT22;16877;48.810;9.282;2022-10-30T03:26:55;25.20;54.80
1367;DHT22;16877;48.810;9.282;2022-10-30T03:29:23;25.20;54.80
1367;DHT22;16877;48.810;9.282;2022-10-30T03:31:49;25.20;54.80
1367;DHT22;16877;48.810;9.282;2022-10-30T03:34:16;25.20;54.80
1367;DHT22;16877;48.810;9.282;2022-10-30T03:36:43;25.20;54.80
1367;DHT22;16877;48.810;9.282;2022-10-30T03:39:10;25.20;54.80
1367;DHT22;16877;48.810;9.282;2022-10-30T03:41:36;25.10;54.80
1367;DHT22;16877;48.810;9.282;2022-10-30T03:44:03;25.10;54.80
1367;DHT22;16877;48.810;9.282;2022-10-30T03:46:31;25.10;54.80
1367;DHT22;16877;48.810;9.282;2022-10-30T03:48:58;25.10;54.80
1367;DHT22;16877;48.810;9.282;2022-10-30T03:51:25;25.10;54.80
1367;DHT22;16877;48.810;9.282;2022-10-30T03:53:51;25.10;54.80
1367;DHT22;16877;48.810;9.282;2022-10-30T03:56:18;25.10;54.90
1367;DHT22;16877;48.810;9.282;2022-10-30T03:58:45;25.10;54.80
1367;DHT22;16877;48.810;9.282;2022-10-30T04:01:12;25.10;54.80
1367;DHT22;16877;48.810;9.282;2022-10-30T04:03:40;25.10;54.80
1367;DHT22;16877;48.810;9.282;2022-10-30T04:06:07;25.10;54.80
1367;DHT22;16877;48.810;9.282;2022-10-30T04:08:33;25.10;54.80
1367;DHT22;16877;48.810;9.282;2022-10-30T04:11:00;25.00;54.80
1367;DHT22;16877;48.810;9.282;2022-10-30T04:13:27;25.00;54.80
1367;DHT22;16877;48.810;9.282;2022-10-30T04:15:54;25.00;54.80
1367;DHT22;16877;48.810;9.282;2022-10-30T04:18:20;25.00;54.80
1367;DHT22;16877;48.810;9.282;2022-10-30T04:20:49;25.00;54.80
1367;DHT22;16877;48.810;9.282;2022-10-30T04:23:17;25.00;54.80
1367;DHT22;16877;48.810;9.282;2022-10-30T04:25:44;25.00;54.80
1367;DHT22;16877;48.810;9.282;2022-10-30T04:28:11;25.00;54.80
1367;DHT22;16877;48.810;9.282;2022-10-30T04:30:38;24.90;54.70
1367;DHT22;16877;48.810;9.282;2022-10-30T04:33:07;24.90;54.80
1367;DHT22;16877;48.810;9.282;2022-10-30T04:35:35;24.90;54.70
1367;DHT22;16877;48.810;9.282;2022-10-30T04:38:05;24.90;54.80
1367;DHT22;16877;48.810;9.282;2022-10-30T04:40:34;24.90;54.70
1367;DHT22;16877;48.810;9.282;2022-10-30T04:43:02;24.90;54.70
1367;DHT22;16877;48.810;9.282;2022-10-30T04:45:29;24.90;54.80
1367;DHT22;16877;48.810;9.282;2022-10-30T04:48:00;24.80;54.70
1367;DHT22;16877;48.810;9.282;2022-10-30T04:50:27;24.80;54.70
1367;DHT22;16877;48.810;9.282;2022-10-30T04:52:58;24.80;54.70
1367;DHT22;16877;48.810;9.282;2022-10-30T04:55:26;24.80;54.70
1367;DHT22;16877;48.810;9.282;2022-10-30T04:57:54;24.80;54.70
1367;DHT22;16877;48.810;9.282;2022-10-30T05:00:21;24.80;54.70
1367;DHT22;16877;48.810;9.282;2022-10-30T05:02:48;24.80;54.70
1367;DHT22;16877;48.810;9.282;2022-10-30T05:05:15;24.80;54.70
1367;DHT22;16877;48.810;9.282;2022-10-30T05:07:41;24.80;54.70
1367;DHT22;16877;48.810;9.282;2022-10-30T05:10:10;24.70;54.70
1367;DHT22;16877;48.810;9.282;2022-10-30T05:12:39;24.70;54.70
1367;DHT22;16877;48.810;9.282;2022-10-30T05:15:06;24.70;54.70
1367;DHT22;16877;48.810;9.282;2022-10-30T05:17:33;24.70;54.70
1367;DHT22;16877;48.810;9.282;2022-10-30T05:20:00;24.70;54.70
1367;DHT22;16877;48.810;9.282;2022-10-30T05:22:27;24.70;54.70
1367;DHT22;16877;48.810;9.282;2022-10-30T05:24:53;24.60;54.70
1367;DHT22;16877;48.810;9.282;2022-10-30T05:27:20;24.60;54.60
1367;DHT22;16877;48.810;9.282;2022-10-30T05:29:48;24.60;54.70
1367;DHT22;16877;48.810;9.282;2022-10-30T05:32:15;24.60;54.60
1367;DHT22;16877;48.810;9.282;2022-10-30T05:34:41;24.60;54.60
1367;DHT22;16877;48.810;9.282;2022-10-30T05:37:08;24.60;54.60
1367;DHT22;16877;48.810;9.282;2022-10-30T05:39:35;24.60;54.60
1367;DHT22;16877;48.810;9.282;2022-10-30T05:42:01;24.50;54.50
1367;DHT22;16877;48.810;9.282;2022-10-30T05:44:28;24.60;54.60
1367;DHT22;16877;48.810;9.282;2022-10-30T05:46:56;24.50;54.50
1367;DHT22;16877;48.810;9.282;2022-10-30T05:49:23;24.50;54.60
1367;DHT22;16877;48.810;9.282;2022-10-30T05:51:49;24.50;54.50
1367;DHT22;16877;48.810;9.282;2022-10-30T05:54:16;24.50;54.60
1367;DHT22;16877;48.810;9.282;2022-10-30T05:56:43;24.50;54.60
1367;DHT22;16877;48.810;9.282;2022-10-30T05:59:09;24.50;54.60
1367;DHT22;16877;48.810;9.282;2022-10-30T06:01:36;24.50;54.60
1367;DHT22;16877;48.810;9.282;2022-10-30T06:04:04;24.50;54.60
1367;DHT22;16877;48.810;9.282;2022-10-30T06:06:31;24.50;54.50
1367;DHT22;16877;48.810;9.282;2022-10-30T06:08:58;24.50;54.50
1367;DHT22;16877;48.810;9.282;2022-10-30T06:11:25;24.50;54.50
1367;DHT22;16877;48.810;9.282;2022-10-30T06:13:51;24.50;54.40
1367;DHT22;16877;48.810;9.282;2022-10-30T06:16:18;24.40;54.30
1367;DHT22;16877;48.810;9.282;2022-10-30T06:18:45;24.40;54.30
1367;DHT22;16877;48.810;9.282;2022-10-30T06:21:13;24.40;54.30
1367;DHT22;16877;48.810;9.282;2022-10-30T06:23:39;24.40;54.20
1367;DHT22;16877;48.810;9.282;2022-10-30T06:26:06;24.40;54.20
1367;DHT22;16877;48.810;9.282;2022-10-30T06:28:33;24.40;54.20
1367;DHT22;16877;48.810;9.282;2022-10-30T06:30:59;24.40;54.10
1367;DHT22;16877;48.810;9.282;2022-10-30T06:33:26;24.40;54.10
1367;DHT22;16877;48.810;9.282;2022-10-30T06:35:53;24.40;54.10
1367;DHT22;16877;48.810;9.282;2022-10-30T06:38:21;24.50;54.20
1367;DHT22;16877;48.810;9.282;2022-10-30T06:40:48;24.40;54.10
1367;DHT22;16877;48.810;9.282;2022-10-30T06:43:15;24.40;54.00
1367;DHT22;16877;48.810;9.282;2022-10-30T06:45:41;24.50;54.10
1367;DHT22;16877;48.810;9.282;2022-10-30T06:48:08;24.50;54.00
1367;DHT22;16877;48.810;9.282;2022-10-30T06:50:35;24.50;54.60
1367;DHT22;16877;48.810;9.282;2022-10-30T06:53:02;24.60;54.10
1367;DHT22;16877;48.810;9.282;2022-10-30T06:55:30;24.60;54.00
1367;DHT22;16877;48.810;9.282;2022-10-30T06:57:56;24.70;54.10
1367;DHT22;16877;48.810;9.282;2022-10-30T07:00:23;24.80;54.00
1367;DHT22;16877;48.810;9.282;2022-10-30T07:02:57;24.90;54.10
1367;DHT22;16877;48.810;9.282;2022-10-30T07:05:24;25.00;54.20
1367;DHT22;16877;48.810;9.282;2022-10-30T07:07:51;25.10;54.10
1367;DHT22;16877;48.810;9.282;2022-10-30T07:10:17;25.30;54.10
1367;DHT22;16877;48.810;9.282;2022-10-30T07:12:52;25.40;54.10
1367;DHT22;16877;48.810;9.282;2022-10-30T07:15:18;25.50;54.00
1367;DHT22;16877;48.810;9.282;2022-10-30T07:17:51;25.70;53.80
1367;DHT22;16877;48.810;9.282;2022-10-30T07:20:19;25.80;53.60
1367;DHT22;16877;48.810;9.282;2022-10-30T07:22:45;25.90;53.40
1367;DHT22;16877;48.810;9.282;2022-10-30T07:25:12;26.00;53.30
1367;DHT22;16877;48.810;9.282;2022-10-30T07:27:42;26.00;53.10
1367;DHT22;16877;48.810;9.282;2022-10-30T07:30:11;26.20;53.10
1367;DHT22;16877;48.810;9.282;2022-10-30T07:32:39;26.20;52.90
1367;DHT22;16877;48.810;9.282;2022-10-30T07:35:07;26.20;52.80
1367;DHT22;16877;48.810;9.282;2022-10-30T07:37:34;26.30;52.70
1367;DHT22;16877;48.810;9.282;2022-10-30T07:40:01;26.30;52.60
1367;DHT22;16877;48.810;9.282;2022-10-30T07:42:27;26.40;52.60
1367;DHT22;16877;48.810;9.282;2022-10-30T07:44:54;26.50;52.60
1367;DHT22;16877;48.810;9.282;2022-10-30T07:47:22;26.60;52.80
1367;DHT22;16877;48.810;9.282;2022-10-30T07:49:49;26.70;52.80
1367;DHT22;16877;48.810;9.282;2022-10-30T07:52:16;26.90;52.80
1367;DHT22;16877;48.810;9.282;2022-10-30T07:54:43;27.10;52.70
1367;DHT22;16877;48.810;9.282;2022-10-30T07:57:09;27.20;52.50
1367;DHT22;16877;48.810;9.282;2022-10-30T07:59:36;27.50;52.50
1367;DHT22;16877;48.810;9.282;2022-10-30T08:02:03;27.70;52.30
1367;DHT22;16877;48.810;9.282;2022-10-30T08:04:31;28.00;52.10
1367;DHT22;16877;48.810;9.282;2022-10-30T08:06:57;28.20;51.70
1367;DHT22;16877;48.810;9.282;2022-10-30T08:09:24;28.50;51.40
1367;DHT22;16877;48.810;9.282;2022-10-30T08:11:51;28.70;51.20
1367;DHT22;16877;48.810;9.282;2022-10-30T08:14:18;29.10;50.80
1367;DHT22;16877;48.810;9.282;2022-10-30T08:16:45;29.20;50.40
1367;DHT22;16877;48.810;9.282;2022-10-30T08:19:12;29.50;50.20
1367;DHT22;16877;48.810;9.282;2022-10-30T08:21:40;29.80;49.90
1367;DHT22;16877;48.810;9.282;2022-10-30T08:24:07;30.00;49.60
1367;DHT22;16877;48.810;9.282;2022-10-30T08:26:34;30.30;49.30
1367;DHT22;16877;48.810;9.282;2022-10-30T08:29:00;30.50;48.90
1367;DHT22;16877;48.810;9.282;2022-10-30T08:31:27;30.80;48.70
1367;DHT22;16877;48.810;9.282;2022-10-30T08:33:54;31.00;48.40
1367;DHT22;16877;48.810;9.282;2022-10-30T08:36:20;31.30;48.10
1367;DHT22;16877;48.810;9.282;2022-10-30T08:38:48;31.50;47.70
1367;DHT22;16877;48.810;9.282;2022-10-30T08:41:15;31.80;47.40
1367;DHT22;16877;48.810;9.282;2022-10-30T08:43:42;32.00;47.10
1367;DHT22;16877;48.810;9.282;2022-10-30T08:46:08;32.30;46.90
1367;DHT22;16877;48.810;9.282;2022-10-30T08:48:35;32.50;46.60
1367;DHT22;16877;48.810;9.282;2022-10-30T08:51:02;32.70;46.30
1367;DHT22;16877;48.810;9.282;2022-10-30T08:53:29;33.00;46.10
1367;DHT22;16877;48.810;9.282;2022-10-30T08:55:57;33.30;45.80
1367;DHT22;16877;48.810;9.282;2022-10-30T08:58:23;33.50;45.60
1367;DHT22;16877;48.810;9.282;2022-10-30T09:00:50;33.70;45.30
1367;DHT22;16877;48.810;9.282;2022-10-30T09:03:17;34.00;45.10
1367;DHT22;16877;48.810;9.282;2022-10-30T09:05:44;34.20;44.80
1367;DHT22;16877;48.810;9.282;2022-10-30T09:08:10;34.50;44.70
1367;DHT22;16877;48.810;9.282;2022-10-30T09:10:37;34.70;44.40
1367;DHT22;16877;48.810;9.282;2022-10-30T09:13:05;35.00;44.20
1367;DHT22;16877;48.810;9.282;2022-10-30T09:15:32;35.20;43.80
1367;DHT22;16877;48.810;9.282;2022-10-30T09:18:00;35.40;43.50
1367;DHT22;16877;48.810;9.282;2022-10-30T09:20:27;35.70;43.30
1367;DHT22;16877;48.810;9.282;2022-10-30T09:22:54;35.90;43.00
1367;DHT22;16877;48.810;9.282;2022-10-30T09:25:21;36.20;42.70
1367;DHT22;16877;48.810;9.282;2022-10-30T09:27:48;36.40;42.40
1367;DHT22;16877;48.810;9.282;2022-10-30T09:30:16;36.60;42.20
1367;DHT22;16877;48.810;9.282;2022-10-30T09:32:43;36.80;41.80
1367;DHT22;16877;48.810;9.282;2022-10-30T09:35:09;37.00;41.60
1367;DHT22;16877;48.810;9.282;2022-10-30T09:37:37;37.20;41.20
1367;DHT22;16877;48.810;9.282;2022-10-30T09:40:05;37.50;41.10
1367;DHT22;16877;48.810;9.282;2022-10-30T09:42:40;37.70;40.80
1367;DHT22;16877;48.810;9.282;2022-10-30T09:45:25;37.90;40.50
1367;DHT22;16877;48.810;9.282;2022-10-30T09:48:03;38.20;40.10
1367;DHT22;16877;48.810;9.282;2022-10-30T09:50:34;38.30;39.90
1367;DHT22;16877;48.810;9.282;2022-10-30T09:53:14;38.60;39.80
1367;DHT22;16877;48.810;9.282;2022-10-30T09:55:46;38.80;39.60
1367;DHT22;16877;48.810;9.282;2022-10-30T09:58:22;38.90;39.30
1367;DHT22;16877;48.810;9.282;2022-10-30T10:01:02;39.10;39.20
1367;DHT22;16877;48.810;9.282;2022-10-30T10:03:40;39.30;39.00
1367;DHT22;16877;48.810;9.282;2022-10-30T10:06:14;39.60;39.00
1367;DHT22;16877;48.810;9.282;2022-10-30T10:08:47;39.80;38.90
1367;DHT22;16877;48.810;9.282;2022-10-30T10:11:17;40.00;38.60
1367;DHT22;16877;48.810;9.282;2022-10-30T10:13:49;40.20;38.40
1367;DHT22;16877;48.810;9.282;2022-10-30T10:16:19;40.40;38.30
1367;DHT22;16877;48.810;9.282;2022-10-30T10:18:47;40.60;38.00
1367;DHT22;16877;48.810;9.282;2022-10-30T10:21:20;40.80;37.90
1367;DHT22;16877;48.810;9.282;2022-10-30T10:23:48;40.90;37.60
1367;DHT22;16877;48.810;9.282;2022-10-30T10:26:28;41.10;37.60
1367;DHT22;16877;48.810;9.282;2022-10-30T10:29:13;41.10;37.30
1367;DHT22;16877;48.810;9.282;2022-10-30T10:31:49;41.20;37.10
1367;DHT22;16877;48.810;9.282;2022-10-30T10:34:45;41.30;37.30
1367;DHT22;16877;48.810;9.282;2022-10-30T10:37:22;41.40;37.00
1367;DHT22;16877;48.810;9.282;2022-10-30T10:40:05;41.60;36.90
1367;DHT22;16877;48.810;9.282;2022-10-30T10:42:41;41.70;36.80
1367;DHT22;16877;48.810;9.282;2022-10-30T10:45:19;41.70;36.70
1367;DHT22;16877;48.810;9.282;2022-10-30T10:48:06;41.80;36.60
1367;DHT22;16877;48.810;9.282;2022-10-30T10:50:44;41.80;36.40
1367;DHT22;16877;48.810;9.282;2022-10-30T10:53:19;41.90;36.50
1367;DHT22;16877;48.810;9.282;2022-10-30T10:55:49;41.90;36.30
1367;DHT22;16877;48.810;9.282;2022-10-30T10:58:25;41.90;36.20
1367;DHT22;16877;48.810;9.282;2022-10-30T11:00:55;42.00;36.10
1367;DHT22;16877;48.810;9.282;2022-10-30T11:03:31;42.20;36.10
1367;DHT22;16877;48.810;9.282;2022-10-30T11:06:07;42.30;36.00
1367;DHT22;16877;48.810;9.282;2022-10-30T11:08:38;42.50;35.90
1367;DHT22;16877;48.810;9.282;2022-10-30T11:11:06;42.60;35.80
1367;DHT22;16877;48.810;9.282;2022-10-30T11:13:34;42.70;35.60
1367;DHT22;16877;48.810;9.282;2022-10-30T11:16:12;42.90;35.50
1367;DHT22;16877;48.810;9.282;2022-10-30T11:18:45;43.10;35.40
1367;DHT22;16877;48.810;9.282;2022-10-30T11:21:17;43.10;35.40
1367;DHT22;16877;48.810;9.282;2022-10-30T11:23:45;43.40;35.50
1367;DHT22;16877;48.810;9.282;2022-10-30T11:26:27;43.50;35.50
1367;DHT22;16877;48.810;9.282;2022-10-30T11:28:57;43.60;35.30
1367;DHT22;16877;48.810;9.282;2022-10-30T11:31:26;43.70;35.40
1367;DHT22;16877;48.810;9.282;2022-10-30T11:34:12;43.70;35.30
1367;DHT22;16877;48.810;9.282;2022-10-30T11:36:40;43.90;35.20
1367;DHT22;16877;48.810;9.282;2022-10-30T11:39:09;43.90;35.30
1367;DHT22;16877;48.810;9.282;2022-10-30T11:41:36;44.00;35.20
1367;DHT22;16877;48.810;9.282;2022-10-30T11:44:04;44.00;35.10
1367;DHT22;16877;48.810;9.282;2022-10-30T11:46:32;44.30;35.20
1367;DHT22;16877;48.810;9.282;2022-10-30T11:49:02;44.20;35.00
1367;DHT22;16877;48.810;9.282;2022-10-30T11:51:33;44.20;35.00
1367;DHT22;16877;48.810;9.282;2022-10-30T11:54:00;44.20;35.00
1367;DHT22;16877;48.810;9.282;2022-10-30T11:56:34;44.20;34.90
1367;DHT22;16877;48.810;9.282;2022-10-30T11:59:02;44.20;34.90
1367;DHT22;16877;48.810;9.282;2022-10-30T12:01:31;44.10;34.90
1367;DHT22;16877;48.810;9.282;2022-10-30T12:04:14;43.90;35.00
1367;DHT22;16877;48.810;9.282;2022-10-30T12:06:41;43.80;35.00
1367;DHT22;16877;48.810;9.282;2022-10-30T12:09:11;43.50;35.10
1367;DHT22;16877;48.810;9.282;2022-10-30T12:11:39;43.20;35.10
1367;DHT22;16877;48.810;9.282;2022-10-30T12:14:15;43.00;35.10
1367;DHT22;16877;48.810;9.282;2022-10-30T12:16:45;42.90;35.30
1367;DHT22;16877;48.810;9.282;2022-10-30T12:19:14;42.60;35.40
1367;DHT22;16877;48.810;9.282;2022-10-30T12:21:44;42.30;35.50
1367;DHT22;16877;48.810;9.282;2022-10-30T12:24:16;42.10;35.70
1367;DHT22;16877;48.810;9.282;2022-10-30T12:26:46;41.80;35.80
1367;DHT22;16877;48.810;9.282;2022-10-30T12:29:15;41.50;35.90
1367;DHT22;16877;48.810;9.282;2022-10-30T12:31:47;41.20;36.00
1367;DHT22;16877;48.810;9.282;2022-10-30T12:34:29;41.10;36.20
1367;DHT22;16877;48.810;9.282;2022-10-30T12:37:05;41.00;36.40
1367;DHT22;16877;48.810;9.282;2022-10-30T12:39:44;40.90;36.60
1367;DHT22;16877;48.810;9.282;2022-10-30T12:42:14;40.80;36.70
1367;DHT22;16877;48.810;9.282;2022-10-30T12:44:44;40.70;36.80
1367;DHT22;16877;48.810;9.282;2022-10-30T12:47:18;40.50;36.90
1367;DHT22;16877;48.810;9.282;2022-10-30T12:49:50;40.50;37.10
1367;DHT22;16877;48.810;9.282;2022-10-30T12:52:20;40.40;37.10
1367;DHT22;16877;48.810;9.282;2022-10-30T12:54:50;40.30;37.20
1367;DHT22;16877;48.810;9.282;2022-10-30T12:57:21;40.20;37.30
1367;DHT22;16877;48.810;9.282;2022-10-30T12:59:56;40.20;37.40
1367;DHT22;16877;48.810;9.282;2022-10-30T13:02:31;40.00;37.40
1367;DHT22;16877;48.810;9.282;2022-10-30T13:05:05;39.90;37.40
1367;DHT22;16877;48.810;9.282;2022-10-30T13:07:46;39.90;37.50
1367;DHT22;16877;48.810;9.282;2022-10-30T13:10:26;39.80;37.60
1367;DHT22;16877;48.810;9.282;2022-10-30T13:12:56;39.90;37.70
1367;DHT22;16877;48.810;9.282;2022-10-30T13:15:28;39.90;37.60
1367;DHT22;16877;48.810;9.282;2022-10-30T13:17:58;39.80;37.50
1367;DHT22;16877;48.810;9.282;2022-10-30T13:20:28;39.90;37.60
1367;DHT22;16877;48.810;9.282;2022-10-30T13:23:01;39.90;37.50
1367;DHT22;16877;48.810;9.282;2022-10-30T13:25:33;39.90;37.60
1367;DHT22;16877;48.810;9.282;2022-10-30T13:28:04;39.90;37.80
1367;DHT22;16877;48.810;9.282;2022-10-30T13:30:35;39.90;37.80
1367;DHT22;16877;48.810;9.282;2022-10-30T13:33:09;40.00;37.80
1367;DHT22;16877;48.810;9.282;2022-10-30T13:35:43;40.00;37.80
1367;DHT22;16877;48.810;9.282;2022-10-30T13:38:24;40.10;37.80
1367;DHT22;16877;48.810;9.282;2022-10-30T13:40:59;40.20;37.70
1367;DHT22;16877;48.810;9.282;2022-10-30T13:43:36;40.20;37.70
1367;DHT22;16877;48.810;9.282;2022-10-30T13:46:18;40.20;37.60
1367;DHT22;16877;48.810;9.282;2022-10-30T13:48:57;40.20;37.70
1367;DHT22;16877;48.810;9.282;2022-10-30T13:51:38;40.20;37.70
1367;DHT22;16877;48.810;9.282;2022-10-30T13:54:13;40.20;37.60
1367;DHT22;16877;48.810;9.282;2022-10-30T13:56:42;40.30;37.60
1367;DHT22;16877;48.810;9.282;2022-10-30T13:59:23;40.40;37.50
1367;DHT22;16877;48.810;9.282;2022-10-30T14:01:57;40.40;37.50
1367;DHT22;16877;48.810;9.282;2022-10-30T14:04:32;40.50;37.50
1367;DHT22;16877;48.810;9.282;2022-10-30T14:07:17;40.50;37.30
1367;DHT22;16877;48.810;9.282;2022-10-30T14:09:54;40.70;37.30
1367;DHT22;16877;48.810;9.282;2022-10-30T14:12:44;40.60;37.20
1367;DHT22;16877;48.810;9.282;2022-10-30T14:15:25;40.70;37.10
1367;DHT22;16877;48.810;9.282;2022-10-30T14:18:22;40.80;37.10
1367;DHT22;16877;48.810;9.282;2022-10-30T14:20:51;40.70;37.00
1367;DHT22;16877;48.810;9.282;2022-10-30T14:23:22;40.60;37.10
1367;DHT22;16877;48.810;9.282;2022-10-30T14:26:11;40.40;37.60
1367;DHT22;16877;48.810;9.282;2022-10-30T14:28:39;40.20;37.00
1367;DHT22;16877;48.810;9.282;2022-10-30T14:31:08;39.90;37.10
1367;DHT22;16877;48.810;9.282;2022-10-30T14:33:44;39.80;37.30
1367;DHT22;16877;48.810;9.282;2022-10-30T14:36:13;39.60;37.30
1367;DHT22;16877;48.810;9.282;2022-10-30T14:38:51;39.20;37.30
1367;DHT22;16877;48.810;9.282;2022-10-30T14:41:30;39.10;37.40
1367;DHT22;16877;48.810;9.282;2022-10-30T14:44:05;38.80;37.50
1367;DHT22;16877;48.810;9.282;2022-10-30T14:46:43;38.50;37.50
1367;DHT22;16877;48.810;9.282;2022-10-30T14:49:25;38.30;37.70
1367;DHT22;16877;48.810;9.282;2022-10-30T14:52:02;38.10;37.70
1367;DHT22;16877;48.810;9.282;2022-10-30T14:54:38;37.80;38.20
1367;DHT22;16877;48.810;9.282;2022-10-30T14:57:19;37.60;37.70
1367;DHT22;16877;48.810;9.282;2022-10-30T14:59:46;37.40;37.70
1367;DHT22;16877;48.810;9.282;2022-10-30T15:02:25;37.20;37.70
1367;DHT22;16877;48.810;9.282;2022-10-30T15:05:11;36.90;37.60
1367;DHT22;16877;48.810;9.282;2022-10-30T15:07:47;36.80;37.70
1367;DHT22;16877;48.810;9.282;2022-10-30T15:10:23;36.50;37.70
1367;DHT22;16877;48.810;9.282;2022-10-30T15:13:03;36.30;37.80
1367;DHT22;16877;48.810;9.282;2022-10-30T15:15:31;36.20;37.90
1367;DHT22;16877;48.810;9.282;2022-10-30T15:18:00;36.00;38.10
1367;DHT22;16877;48.810;9.282;2022-10-30T15:20:30;35.80;38.20
1367;DHT22;16877;48.810;9.282;2022-10-30T15:23:00;35.70;38.50
1367;DHT22;16877;48.810;9.282;2022-10-30T15:25:33;35.40;38.60
1367;DHT22;16877;48.810;9.282;2022-10-30T15:28:00;35.40;39.50
1367;DHT22;16877;48.810;9.282;2022-10-30T15:30:27;35.20;39.30
1367;DHT22;16877;48.810;9.282;2022-10-30T15:32:54;35.10;39.10
1367;DHT22;16877;48.810;9.282;2022-10-30T15:35:22;35.00;39.10
1367;DHT22;16877;48.810;9.282;2022-10-30T15:38:00;34.90;39.70
1367;DHT22;16877;48.810;9.282;2022-10-30T15:40:28;34.70;39.50
1367;DHT22;16877;48.810;9.282;2022-10-30T15:42:58;34.50;39.50
1367;DHT22;16877;48.810;9.282;2022-10-30T15:45:29;34.30;39.60
1367;DHT22;16877;48.810;9.282;2022-10-30T15:48:03;34.30;39.90
1367;DHT22;16877;48.810;9.282;2022-10-30T15:50:30;34.10;39.40
1367;DHT22;16877;48.810;9.282;2022-10-30T15:52:57;33.90;39.80
1367;DHT22;16877;48.810;9.282;2022-10-30T15:55:28;33.70;40.10
1367;DHT22;16877;48.810;9.282;2022-10-30T15:57:58;33.70;40.00
1367;DHT22;16877;48.810;9.282;2022-10-30T16:00:27;33.40;40.10
1367;DHT22;16877;48.810;9.282;2022-10-30T16:03:02;33.20;40.20
1367;DHT22;16877;48.810;9.282;2022-10-30T16:05:30;33.20;40.40